sensor_id;sensor_type;location;lat;lon;timestamp;pressure;altitude;pressure_sealevel;temperature;humidity
10587;BME280;5341;47.606;7.576;2023-05-01T00:00:35;98681.53;;;18.55;51.31
10587;BME280;5341;47.606;7.576;2023-05-01T00:03:03;98672.59;;;18.54;51.11
10587;BME280;5341;47.606;7.576;2023-05-01T00:05:31;98679.03;;;18.53;51.20
10587;BME280;5341;47.606;7.576;2023-05-01T00:07:59;98678.47;;;18.51;51.33
10587;BME280;5341;47.606;7.576;2023-05-01T00:10:28;98674.09;;;18.50;51.14
10587;BME280;5341;47.606;7.576;2023-05-01T00:12:57;98668.69;;;18.50;51.20
10587;BME280;5341;47.606;7.576;2023-05-01T00:15:26;98670.56;;;18.50;51.32
10587;BME280;5341;47.606;7.576;2023-05-01T00:17:55;98673.53;;;18.48;51.40
10587;BME280;5341;47.606;7.576;2023-05-01T00:20:25;98668.34;;;18.47;51.10
10587;BME280;5341;47.606;7.576;2023-05-01T00:22:53;98664.81;;;18.46;51.35
10587;BME280;5341;47.606;7.576;2023-05-01T00:25:20;98663.16;;;18.45;51.40
10587;BME280;5341;47.606;7.576;2023-05-01T00:27:50;98664.22;;;18.44;51.54
10587;BME280;5341;47.606;7.576;2023-05-01T00:30:20;98659.88;;;18.43;51.52
10587;BME280;5341;47.606;7.576;2023-05-01T00:32:48;98660.13;;;18.41;51.35
10587;BME280;5341;47.606;7.576;2023-05-01T00:35:15;98660.31;;;18.40;51.47
10587;BME280;5341;47.606;7.576;2023-05-01T00:37:44;98653.25;;;18.39;51.57
10587;BME280;5341;47.606;7.576;2023-05-01T00:40:17;98648.91;;;18.38;51.55
10587;BME280;5341;47.606;7.576;2023-05-01T00:42:48;98648.34;;;18.36;51.52
10587;BME280;5341;47.606;7.576;2023-05-01T00:45:24;98650.22;;;18.35;51.59
10587;BME280;5341;47.606;7.576;2023-05-01T00:47:54;98650.44;;;18.34;51.67
10587;BME280;5341;47.606;7.576;2023-05-01T00:50:22;98646.09;;;18.33;51.79
10587;BME280;5341;47.606;7.576;2023-05-01T00:52:54;98642.56;;;18.32;51.87
10587;BME280;5341;47.606;7.576;2023-05-01T00:55:32;98638.47;;;18.30;51.85
10587;BME280;5341;47.606;7.576;2023-05-01T00:58:02;98642.19;;;18.29;52.00
10587;BME280;5341;47.606;7.576;2023-05-01T01:00:31;98632.66;;;18.26;51.87
10587;BME280;5341;47.606;7.576;2023-05-01T01:02:59;98640.78;;;18.26;51.96
10587;BME280;5341;47.606;7.576;2023-05-01T01:05:28;98633.72;;;18.25;51.90
10587;BME280;5341;47.606;7.576;2023-05-01T01:08:04;98629.38;;;18.24;51.97
10587;BME280;5341;47.606;7.576;2023-05-01T01:10:40;98629.63;;;18.23;51.95
10587;BME280;5341;47.606;7.576;2023-05-01T01:13:17;98623.38;;;18.22;52.25
10587;BME280;5341;47.606;7.576;2023-05-01T01:15:52;98627.16;;;18.21;52.31
10587;BME280;5341;47.606;7.576;2023-05-01T01:18:30;98622.78;;;18.20;52.14
10587;BME280;5341;47.606;7.576;2023-05-01T01:21:07;98622.22;;;18.18;52.30
10587;BME280;5341;47.606;7.576;2023-05-01T01:27:16;98623.47;;;18.15;52.20
10587;BME280;5341;47.606;7.576;2023-05-01T01:30:15;98622.66;;;18.15;52.25
10587;BME280;5341;47.606;7.576;2023-05-01T01:33:24;98617.72;;;18.12;52.29
10587;BME280;5341;47.606;7.576;2023-05-01T01:36:04;98612.53;;;18.10;52.48
10587;BME280;5341;47.606;7.576;2023-05-01T01:38:41;98618.19;;;18.09;52.40
10587;BME280;5341;47.606;7.576;2023-05-01T01:41:19;98613.03;;;18.07;52.49
10587;BME280;5341;47.606;7.576;2023-05-01T01:44:03;98617.84;;;18.05;52.51
10587;BME280;5341;47.606;7.576;2023-05-01T01:46:36;98624.28;;;18.04;52.64
10587;BME280;5341;47.606;7.576;2023-05-01T01:49:11;98619.13;;;18.03;52.72
10587;BME280;5341;47.606;7.576;2023-05-01T01:51:46;98618.53;;;18.01;52.70
10587;BME280;5341;47.606;7.576;2023-05-01T01:54:16;98618.53;;;18.01;52.78
10587;BME280;5341;47.606;7.576;2023-05-01T01:56:50;98622.28;;;18.00;52.50
10587;BME280;5341;47.606;7.576;2023-05-01T01:59:20;98628.53;;;18.00;52.84
10587;BME280;5341;47.606;7.576;2023-05-01T02:01:52;98619.81;;;17.98;52.86
10587;BME280;5341;47.606;7.576;2023-05-01T02:04:25;98616.28;;;17.98;53.13
10587;BME280;5341;47.606;7.576;2023-05-01T02:07:06;98616.53;;;17.96;53.18
10587;BME280;5341;47.606;7.576;2023-05-01T02:09:37;98626.53;;;17.96;52.96
10587;BME280;5341;47.606;7.576;2023-05-01T02:12:09;98612.19;;;17.95;53.12
10587;BME280;5341;47.606;7.576;2023-05-01T02:14:40;98621.56;;;17.93;53.31
10587;BME280;5341;47.606;7.576;2023-05-01T02:17:11;98620.75;;;17.92;53.13
10587;BME280;5341;47.606;7.576;2023-05-01T02:19:46;98617.22;;;17.92;53.27
10587;BME280;5341;47.606;7.576;2023-05-01T02:22:21;98616.38;;;17.91;53.38
10587;BME280;5341;47.606;7.576;2023-05-01T02:24:53;98617.44;;;17.90;53.39
10587;BME280;5341;47.606;7.576;2023-05-01T02:27:25;98622.03;;;17.90;53.29
10587;BME280;5341;47.606;7.576;2023-05-01T02:29:59;98617.69;;;17.89;53.40
10587;BME280;5341;47.606;7.576;2023-05-01T02:32:33;98618.75;;;17.88;53.58
10587;BME280;5341;47.606;7.576;2023-05-01T02:35:02;98618.97;;;17.86;53.42
10587;BME280;5341;47.606;7.576;2023-05-01T02:37:32;98620.88;;;17.85;53.32
10587;BME280;5341;47.606;7.576;2023-05-01T02:40:03;98613.00;;;17.84;53.60
10587;BME280;5341;47.606;7.576;2023-05-01T02:42:37;98619.47;;;17.83;53.55
10587;BME280;5341;47.606;7.576;2023-05-01T02:45:09;98619.47;;;17.83;53.41
10587;BME280;5341;47.606;7.576;2023-05-01T02:47:42;98613.22;;;17.82;53.75
10587;BME280;5341;47.606;7.576;2023-05-01T02:50:16;98609.91;;;17.80;54.01
10587;BME280;5341;47.606;7.576;2023-05-01T02:52:49;98602.84;;;17.79;53.97
10587;BME280;5341;47.606;7.576;2023-05-01T02:55:35;98605.56;;;17.79;54.15
10587;BME280;5341;47.606;7.576;2023-05-01T02:58:02;98603.31;;;17.76;54.01
10587;BME280;5341;47.606;7.576;2023-05-01T03:00:30;98601.09;;;17.73;54.09
10587;BME280;5341;47.606;7.576;2023-05-01T03:03:01;98593.44;;;17.70;54.31
10587;BME280;5341;47.606;7.576;2023-05-01T03:05:30;98594.66;;;17.68;54.36
10587;BME280;5341;47.606;7.576;2023-05-01T03:07:59;98593.84;;;17.67;54.64
10587;BME280;5341;47.606;7.576;2023-05-01T03:10:29;98589.50;;;17.66;54.74
10587;BME280;5341;47.606;7.576;2023-05-01T03:13:01;98590.31;;;17.67;54.51
10587;BME280;5341;47.606;7.576;2023-05-01T03:15:28;98597.63;;;17.66;54.65
10587;BME280;5341;47.606;7.576;2023-05-01T03:17:58;98593.03;;;17.67;54.74
10587;BME280;5341;47.606;7.576;2023-05-01T03:20:30;98591.38;;;17.66;54.76
10587;BME280;5341;47.606;7.576;2023-05-01T03:23:01;98591.38;;;17.66;54.77
10587;BME280;5341;47.606;7.576;2023-05-01T03:25:29;98592.44;;;17.65;54.94
10587;BME280;5341;47.606;7.576;2023-05-01T03:27:56;98592.44;;;17.65;54.61
10587;BME280;5341;47.606;7.576;2023-05-01T03:30:25;98586.22;;;17.64;54.59
10587;BME280;5341;47.606;7.576;2023-05-01T03:32:57;98587.50;;;17.62;54.92
10587;BME280;5341;47.606;7.576;2023-05-01T03:35:30;98585.28;;;17.58;54.87
10587;BME280;5341;47.606;7.576;2023-05-01T03:38:02;98579.03;;;17.58;54.75
10587;BME280;5341;47.606;7.576;2023-05-01T03:41:02;98581.94;;;17.56;55.13
10587;BME280;5341;47.606;7.576;2023-05-01T03:44:13;98584.88;;;17.55;54.97
10587;BME280;5341;47.606;7.576;2023-05-01T03:46:58;98589.47;;;17.54;55.00
10587;BME280;5341;47.606;7.576;2023-05-01T03:49:39;98595.94;;;17.53;55.35
10587;BME280;5341;47.606;7.576;2023-05-01T03:52:09;98597.81;;;17.53;55.25
10587;BME280;5341;47.606;7.576;2023-05-01T03:54:41;98591.59;;;17.52;54.99
10587;BME280;5341;47.606;7.576;2023-05-01T03:57:30;98590.53;;;17.53;55.06
10587;BME280;5341;47.606;7.576;2023-05-01T04:00:00;98588.06;;;17.52;55.12
10587;BME280;5341;47.606;7.576;2023-05-01T04:02:30;98591.59;;;17.52;55.15
10587;BME280;5341;47.606;7.576;2023-05-01T04:04:59;98581.59;;;17.53;55.18
10587;BME280;5341;47.606;7.576;2023-05-01T04:07:29;98585.34;;;17.52;55.46
10587;BME280;5341;47.606;7.576;2023-05-01T04:10:02;98578.53;;;17.49;55.15
10587;BME280;5341;47.606;7.576;2023-05-01T04:12:32;98577.72;;;17.49;55.54
10587;BME280;5341;47.606;7.576;2023-05-01T04:15:01;98573.38;;;17.48;55.34
10587;BME280;5341;47.606;7.576;2023-05-01T04:17:35;98567.38;;;17.46;55.85
10587;BME280;5341;47.606;7.576;2023-05-01T04:20:10;98568.44;;;17.45;55.44
10587;BME280;5341;47.606;7.576;2023-05-01T04:22:38;98567.56;;;17.44;55.65
10587;BME280;5341;47.606;7.576;2023-05-01T04:25:10;98573.84;;;17.45;55.66
10587;BME280;5341;47.606;7.576;2023-05-01T04:27:40;98581.94;;;17.45;55.87
10587;BME280;5341;47.606;7.576;2023-05-01T04:30:10;98582.16;;;17.43;55.73
10587;BME280;5341;47.606;7.576;2023-05-01T04:32:37;98585.69;;;17.44;55.60
10587;BME280;5341;47.606;7.576;2023-05-01T04:35:06;98595.66;;;17.43;55.76
10587;BME280;5341;47.606;7.576;2023-05-01T04:37:44;98594.84;;;17.43;55.64
10587;BME280;5341;47.606;7.576;2023-05-01T04:40:22;98583.22;;;17.42;55.93
10587;BME280;5341;47.606;7.576;2023-05-01T04:42:54;98581.56;;;17.41;56.07
10587;BME280;5341;47.606;7.576;2023-05-01T04:45:22;98581.78;;;17.40;55.74
10587;BME280;5341;47.606;7.576;2023-05-01T04:47:52;98589.91;;;17.40;56.07
10587;BME280;5341;47.606;7.576;2023-05-01T04:50:19;98592.84;;;17.38;56.04
10587;BME280;5341;47.606;7.576;2023-05-01T04:52:47;98589.31;;;17.38;56.00
10587;BME280;5341;47.606;7.576;2023-05-01T04:55:14;98592.25;;;17.36;56.13
10587;BME280;5341;47.606;7.576;2023-05-01T04:58:02;98594.13;;;17.36;56.18
10587;BME280;5341;47.606;7.576;2023-05-01T05:00:32;98596.00;;;17.35;56.08
10587;BME280;5341;47.606;7.576;2023-05-01T05:03:00;98595.19;;;17.35;56.43
10587;BME280;5341;47.606;7.576;2023-05-01T05:05:29;98605.19;;;17.34;56.43
10587;BME280;5341;47.606;7.576;2023-05-01T05:08:01;98602.47;;;17.34;56.36
10587;BME280;5341;47.606;7.576;2023-05-01T05:10:34;98612.66;;;17.32;56.46
10587;BME280;5341;47.606;7.576;2023-05-01T05:13:22;98605.03;;;17.29;56.52
10587;BME280;5341;47.606;7.576;2023-05-01T05:15:59;98609.00;;;17.26;56.69
10587;BME280;5341;47.606;7.576;2023-05-01T05:18:28;98610.91;;;17.26;56.88
10587;BME280;5341;47.606;7.576;2023-05-01T05:20:56;98608.19;;;17.26;57.07
10587;BME280;5341;47.606;7.576;2023-05-01T05:23:26;98606.56;;;17.25;57.13
10587;BME280;5341;47.606;7.576;2023-05-01T05:25:56;98610.91;;;17.26;57.13
10587;BME280;5341;47.606;7.576;2023-05-01T05:28:28;98612.78;;;17.25;56.97
10587;BME280;5341;47.606;7.576;2023-05-01T05:30:58;98615.72;;;17.24;57.18
10587;BME280;5341;47.606;7.576;2023-05-01T05:33:28;98623.00;;;17.23;57.31
10587;BME280;5341;47.606;7.576;2023-05-01T05:35:58;98620.28;;;17.23;57.14
10587;BME280;5341;47.606;7.576;2023-05-01T05:38:33;98621.34;;;17.22;57.27
10587;BME280;5341;47.606;7.576;2023-05-01T05:41:05;98626.75;;;17.22;57.24
10587;BME280;5341;47.606;7.576;2023-05-01T05:43:35;98632.16;;;17.22;57.55
10587;BME280;5341;47.606;7.576;2023-05-01T05:46:05;98621.34;;;17.22;57.63
10587;BME280;5341;47.606;7.576;2023-05-01T05:48:36;98627.56;;;17.23;57.73
10587;BME280;5341;47.606;7.576;2023-05-01T05:51:07;98625.69;;;17.23;57.43
10587;BME280;5341;47.606;7.576;2023-05-01T05:53:35;98619.69;;;17.21;57.39
10587;BME280;5341;47.606;7.576;2023-05-01T05:56:05;98620.75;;;17.20;57.30
10587;BME280;5341;47.606;7.576;2023-05-01T05:58:35;98624.47;;;17.19;57.72
10587;BME280;5341;47.606;7.576;2023-05-01T06:01:05;98624.47;;;17.19;57.65
10587;BME280;5341;47.606;7.576;2023-05-01T06:03:38;98620.97;;;17.19;57.77
10587;BME280;5341;47.606;7.576;2023-05-01T06:06:08;98628.88;;;17.20;57.59
10587;BME280;5341;47.606;7.576;2023-05-01T06:08:35;98625.31;;;17.20;57.57
10587;BME280;5341;47.606;7.576;2023-05-01T06:11:07;98632.38;;;17.21;57.97
10587;BME280;5341;47.606;7.576;2023-05-01T06:13:41;98631.56;;;17.20;58.00
10587;BME280;5341;47.606;7.576;2023-05-01T06:16:11;98639.69;;;17.20;57.89
10587;BME280;5341;47.606;7.576;2023-05-01T06:18:40;98640.50;;;17.21;58.08
10587;BME280;5341;47.606;7.576;2023-05-01T06:21:07;98640.50;;;17.21;57.73
10587;BME280;5341;47.606;7.576;2023-05-01T06:23:35;98635.91;;;17.21;57.99
10587;BME280;5341;47.606;7.576;2023-05-01T06:26:21;98641.31;;;17.21;57.76
10587;BME280;5341;47.606;7.576;2023-05-01T06:28:52;98641.09;;;17.23;57.61
10587;BME280;5341;47.606;7.576;2023-05-01T06:31:24;98641.09;;;17.23;57.92
10587;BME280;5341;47.606;7.576;2023-05-01T06:33:55;98646.25;;;17.24;57.74
10587;BME280;5341;47.606;7.576;2023-05-01T06:36:50;98648.97;;;17.24;58.02
10587;BME280;5341;47.606;7.576;2023-05-01T06:39:19;98650.03;;;17.23;57.91
10587;BME280;5341;47.606;7.576;2023-05-01T06:41:46;98651.66;;;17.24;57.74
10587;BME280;5341;47.606;7.576;2023-05-01T06:44:17;98656.03;;;17.25;58.16
10587;BME280;5341;47.606;7.576;2023-05-01T06:46:47;98652.50;;;17.25;57.94
10587;BME280;5341;47.606;7.576;2023-05-01T06:49:15;98650.63;;;17.25;57.94
10587;BME280;5341;47.606;7.576;2023-05-01T06:51:44;98654.13;;;17.26;57.98
10587;BME280;5341;47.606;7.576;2023-05-01T06:54:11;98652.25;;;17.26;58.23
10587;BME280;5341;47.606;7.576;2023-05-01T06:56:40;98650.38;;;17.27;58.24
10587;BME280;5341;47.606;7.576;2023-05-01T06:59:08;98642.28;;;17.27;58.34
10587;BME280;5341;47.606;7.576;2023-05-01T07:01:39;98649.56;;;17.26;58.19
10587;BME280;5341;47.606;7.576;2023-05-01T07:04:07;98647.09;;;17.25;58.35
10587;BME280;5341;47.606;7.576;2023-05-01T07:06:36;98652.50;;;17.25;58.49
10587;BME280;5341;47.606;7.576;2023-05-01T07:09:05;98649.78;;;17.25;58.29
10587;BME280;5341;47.606;7.576;2023-05-01T07:11:33;98651.91;;;17.23;58.34
10587;BME280;5341;47.606;7.576;2023-05-01T07:14:02;98652.72;;;17.23;58.67
10587;BME280;5341;47.606;7.576;2023-05-01T07:16:37;98650.84;;;17.24;58.66
10587;BME280;5341;47.606;7.576;2023-05-01T07:19:07;98651.06;;;17.22;58.85
10587;BME280;5341;47.606;7.576;2023-05-01T07:21:35;98648.38;;;17.22;58.84
10587;BME280;5341;47.606;7.576;2023-05-01T07:24:03;98652.13;;;17.21;58.96
10587;BME280;5341;47.606;7.576;2023-05-01T07:26:31;98656.47;;;17.22;58.81
10587;BME280;5341;47.606;7.576;2023-05-01T07:28:58;98657.31;;;17.23;58.99
10587;BME280;5341;47.606;7.576;2023-05-01T07:31:26;98650.25;;;17.22;59.14
10587;BME280;5341;47.606;7.576;2023-05-01T07:33:56;98658.38;;;17.22;59.40
10587;BME280;5341;47.606;7.576;2023-05-01T07:36:27;98657.31;;;17.23;59.37
10587;BME280;5341;47.606;7.576;2023-05-01T07:38:55;98655.66;;;17.22;59.61
10587;BME280;5341;47.606;7.576;2023-05-01T07:41:24;98651.06;;;17.22;59.22
10587;BME280;5341;47.606;7.576;2023-05-01T07:43:53;98656.47;;;17.22;59.46
10587;BME280;5341;47.606;7.576;2023-05-01T07:46:21;98651.91;;;17.23;59.49
10587;BME280;5341;47.606;7.576;2023-05-01T07:48:51;98654.38;;;17.24;59.42
10587;BME280;5341;47.606;7.576;2023-05-01T07:51:26;98659.53;;;17.26;59.42
10587;BME280;5341;47.606;7.576;2023-05-01T07:53:54;98663.06;;;17.26;59.44
10587;BME280;5341;47.606;7.576;2023-05-01T07:56:22;98666.59;;;17.27;59.82
10587;BME280;5341;47.606;7.576;2023-05-01T07:58:51;98665.31;;;17.29;59.83
10587;BME280;5341;47.606;7.576;2023-05-01T08:01:18;98668.84;;;17.30;59.91
10587;BME280;5341;47.606;7.576;2023-05-01T08:03:47;98659.69;;;17.31;59.70
10587;BME280;5341;47.606;7.576;2023-05-01T08:06:18;98664.88;;;17.33;59.40
10587;BME280;5341;47.606;7.576;2023-05-01T08:08:49;98667.59;;;17.33;59.77
10587;BME280;5341;47.606;7.576;2023-05-01T08:11:17;98665.47;;;17.35;59.90
10587;BME280;5341;47.606;7.576;2023-05-01T08:13:44;98666.28;;;17.35;59.79
10587;BME280;5341;47.606;7.576;2023-05-01T08:16:12;98667.94;;;17.36;59.73
10587;BME280;5341;47.606;7.576;2023-05-01T08:18:42;98671.25;;;17.38;60.24
10587;BME280;5341;47.606;7.576;2023-05-01T08:21:10;98665.84;;;17.38;60.08
10587;BME280;5341;47.606;7.576;2023-05-01T08:23:37;98673.47;;;17.41;60.03
10587;BME280;5341;47.606;7.576;2023-05-01T08:26:07;98667.84;;;17.43;59.84
10587;BME280;5341;47.606;7.576;2023-05-01T08:28:36;98668.47;;;17.45;60.51
10587;BME280;5341;47.606;7.576;2023-05-01T08:31:08;98678.00;;;17.47;60.20
10587;BME280;5341;47.606;7.576;2023-05-01T08:33:37;98676.94;;;17.48;60.20
10587;BME280;5341;47.606;7.576;2023-05-01T08:36:11;98679.41;;;17.50;60.29
10587;BME280;5341;47.606;7.576;2023-05-01T08:38:39;98676.47;;;17.51;60.34
10587;BME280;5341;47.606;7.576;2023-05-01T08:41:14;98673.28;;;17.54;60.95
10587;BME280;5341;47.606;7.576;2023-05-01T08:43:42;98684.13;;;17.54;60.75
10587;BME280;5341;47.606;7.576;2023-05-01T08:46:12;98681.16;;;17.56;60.49
10587;BME280;5341;47.606;7.576;2023-05-01T08:48:43;98677.44;;;17.57;60.92
10587;BME280;5341;47.606;7.576;2023-05-01T08:51:15;98676.38;;;17.58;60.97
10587;BME280;5341;47.606;7.576;2023-05-01T08:53:48;98668.03;;;17.60;61.14
10587;BME280;5341;47.606;7.576;2023-05-01T08:56:19;98675.91;;;17.61;60.94
10587;BME280;5341;47.606;7.576;2023-05-01T08:58:49;98679.44;;;17.62;60.91
10587;BME280;5341;47.606;7.576;2023-05-01T09:01:22;98684.38;;;17.65;60.68
10587;BME280;5341;47.606;7.576;2023-05-01T09:03:52;98676.28;;;17.65;60.69
10587;BME280;5341;47.606;7.576;2023-05-01T09:06:21;98671.69;;;17.65;60.66
10587;BME280;5341;47.606;7.576;2023-05-01T09:08:49;98673.09;;;17.68;60.83
10587;BME280;5341;47.606;7.576;2023-05-01T09:11:18;98669.16;;;17.70;60.77
10587;BME280;5341;47.606;7.576;2023-05-01T09:13:47;98666.00;;;17.73;60.72
10587;BME280;5341;47.606;7.576;2023-05-01T09:16:15;98670.94;;;17.76;60.91
10587;BME280;5341;47.606;7.576;2023-05-01T09:18:44;98673.19;;;17.79;61.17
10587;BME280;5341;47.606;7.576;2023-05-01T09:21:12;98680.03;;;17.82;61.00
10587;BME280;5341;47.606;7.576;2023-05-01T09:23:40;98682.50;;;17.83;61.04
10587;BME280;5341;47.606;7.576;2023-05-01T09:26:08;98681.19;;;17.86;61.10
10587;BME280;5341;47.606;7.576;2023-05-01T09:28:41;98683.44;;;17.89;61.07
10587;BME280;5341;47.606;7.576;2023-05-01T09:31:23;98689.22;;;17.93;61.13
10587;BME280;5341;47.606;7.576;2023-05-01T09:33:54;98688.78;;;17.96;60.92
10587;BME280;5341;47.606;7.576;2023-05-01T09:36:25;98683.94;;;17.98;61.11
10587;BME280;5341;47.606;7.576;2023-05-01T09:38:57;98682.66;;;18.00;60.84
10587;BME280;5341;47.606;7.576;2023-05-01T09:41:26;98683.00;;;18.04;60.80
10587;BME280;5341;47.606;7.576;2023-05-01T09:43:56;98685.25;;;18.07;61.03
10587;BME280;5341;47.606;7.576;2023-05-01T09:46:24;98682.91;;;18.10;61.38
10587;BME280;5341;47.606;7.576;2023-05-01T09:48:54;98688.66;;;18.14;61.21
10587;BME280;5341;47.606;7.576;2023-05-01T09:51:23;98681.75;;;18.18;61.25
10587;BME280;5341;47.606;7.576;2023-05-01T09:53:56;98683.50;;;18.24;61.26
10587;BME280;5341;47.606;7.576;2023-05-01T09:56:25;98675.75;;;18.28;61.27
10587;BME280;5341;47.606;7.576;2023-05-01T09:58:55;98674.22;;;18.32;61.58
10587;BME280;5341;47.606;7.576;2023-05-01T10:01:38;98678.13;;;18.36;61.38
10587;BME280;5341;47.606;7.576;2023-05-01T10:04:09;98678.47;;;18.39;61.44
10587;BME280;5341;47.606;7.576;2023-05-01T10:06:38;98682.38;;;18.43;61.34
10587;BME280;5341;47.606;7.576;2023-05-01T10:09:06;98678.13;;;18.48;61.53
10587;BME280;5341;47.606;7.576;2023-05-01T10:11:47;98678.00;;;18.54;61.34
10587;BME280;5341;47.606;7.576;2023-05-01T10:14:18;98679.19;;;18.58;61.44
10587;BME280;5341;47.606;7.576;2023-05-01T10:16:46;98681.16;;;18.63;61.24
10587;BME280;5341;47.606;7.576;2023-05-01T10:19:16;98678.88;;;18.66;60.97
10587;BME280;5341;47.606;7.576;2023-05-01T10:21:47;98678.63;;;18.68;61.11
10587;BME280;5341;47.606;7.576;2023-05-01T10:24:15;98662.97;;;18.70;60.50
10587;BME280;5341;47.606;7.576;2023-05-01T10:26:43;98678.97;;;18.71;60.88
10587;BME280;5341;47.606;7.576;2023-05-01T10:29:11;98676.59;;;18.75;61.05
10587;BME280;5341;47.606;7.576;2023-05-01T10:31:40;98668.03;;;18.78;60.56
10587;BME280;5341;47.606;7.576;2023-05-01T10:34:08;98674.59;;;18.82;60.37
10587;BME280;5341;47.606;7.576;2023-05-01T10:36:40;98665.75;;;18.87;60.63
10587;BME280;5341;47.606;7.576;2023-05-01T10:39:30;98666.94;;;18.91;60.40
10587;BME280;5341;47.606;7.576;2023-05-01T10:42:03;98670.22;;;18.93;60.45
10587;BME280;5341;47.606;7.576;2023-05-01T10:44:31;98673.88;;;18.98;60.56
10587;BME280;5341;47.606;7.576;2023-05-01T10:50:08;98657.56;;;19.10;59.99
10587;BME280;5341;47.606;7.576;2023-05-01T10:53:16;98669.59;;;19.14;59.65
10587;BME280;5341;47.606;7.576;2023-05-01T10:55:47;98661.22;;;19.16;59.88
10587;BME280;5341;47.606;7.576;2023-05-01T11:01:28;98661.78;;;19.29;60.16
10587;BME280;5341;47.606;7.576;2023-05-01T11:04:00;98650.78;;;19.36;60.21
10587;BME280;5341;47.606;7.576;2023-05-01T11:06:29;98657.47;;;19.45;60.42
10587;BME280;5341;47.606;7.576;2023-05-01T11:08:58;98656.00;;;19.54;60.41
10587;BME280;5341;47.606;7.576;2023-05-01T11:11:46;98656.72;;;19.61;59.88
10587;BME280;5341;47.606;7.576;2023-05-01T11:14:15;98655.41;;;19.64;59.18
10587;BME280;5341;47.606;7.576;2023-05-01T11:16:44;98650.56;;;19.66;58.97
10587;BME280;5341;47.606;7.576;2023-05-01T11:19:46;98652.53;;;19.71;58.63
10587;BME280;5341;47.606;7.576;2023-05-01T11:22:16;98646.63;;;19.74;58.47
10587;BME280;5341;47.606;7.576;2023-05-01T11:24:44;98645.56;;;19.75;58.35
10587;BME280;5341;47.606;7.576;2023-05-01T11:27:13;98634.22;;;19.78;58.06
10587;BME280;5341;47.606;7.576;2023-05-01T11:29:43;98640.22;;;19.80;58.28
10587;BME280;5341;47.606;7.576;2023-05-01T11:32:19;98637.84;;;19.83;58.09
10587;BME280;5341;47.606;7.576;2023-05-01T11:34:53;98634.72;;;19.92;57.79
10587;BME280;5341;47.606;7.576;2023-05-01T11:37:41;98638.09;;;19.99;57.77
10587;BME280;5341;47.606;7.576;2023-05-01T11:40:27;98631.94;;;20.03;57.87
10587;BME280;5341;47.606;7.576;2023-05-01T11:43:00;98635.53;;;20.09;57.88
10587;BME280;5341;47.606;7.576;2023-05-01T11:45:28;98634.31;;;20.16;57.96
10587;BME280;5341;47.606;7.576;2023-05-01T11:47:56;98633.41;;;20.28;58.19
10587;BME280;5341;47.606;7.576;2023-05-01T11:50:34;98635.78;;;20.41;58.44
10587;BME280;5341;47.606;7.576;2023-05-01T11:53:09;98635.78;;;20.58;58.11
10587;BME280;5341;47.606;7.576;2023-05-01T11:55:37;98633.16;;;20.63;56.88
10587;BME280;5341;47.606;7.576;2023-05-01T11:58:05;98624.75;;;20.64;56.29
10587;BME280;5341;47.606;7.576;2023-05-01T12:00:34;98614.69;;;20.65;55.75
10587;BME280;5341;47.606;7.576;2023-05-01T12:03:04;98622.84;;;20.65;56.00
10587;BME280;5341;47.606;7.576;2023-05-01T12:05:37;98629.94;;;20.66;55.24
10587;BME280;5341;47.606;7.576;2023-05-01T12:08:09;98622.84;;;20.65;55.23
10587;BME280;5341;47.606;7.576;2023-05-01T12:10:39;98622.59;;;20.66;54.66
10587;BME280;5341;47.606;7.576;2023-05-01T12:13:19;98611.97;;;20.65;54.75
10587;BME280;5341;47.606;7.576;2023-05-01T12:15:52;98613.88;;;20.64;54.75
10587;BME280;5341;47.606;7.576;2023-05-01T12:18:20;98619.06;;;20.66;54.93
10587;BME280;5341;47.606;7.576;2023-05-01T12:20:50;98620.19;;;20.70;54.69
10587;BME280;5341;47.606;7.576;2023-05-01T12:23:19;98617.81;;;20.73;54.36
10587;BME280;5341;47.606;7.576;2023-05-01T12:25:57;98619.19;;;20.76;54.49
10587;BME280;5341;47.606;7.576;2023-05-01T12:28:25;98615.72;;;20.81;54.47
10587;BME280;5341;47.606;7.576;2023-05-01T12:31:00;98610.03;;;20.82;54.08
10587;BME280;5341;47.606;7.576;2023-05-01T12:33:28;98607.91;;;20.84;53.78
10587;BME280;5341;47.606;7.576;2023-05-01T12:36:07;98614.47;;;20.88;53.79
10587;BME280;5341;47.606;7.576;2023-05-01T12:38:36;98610.16;;;20.92;53.54
10587;BME280;5341;47.606;7.576;2023-05-01T12:41:05;98609.09;;;20.93;53.22
10587;BME280;5341;47.606;7.576;2023-05-01T12:43:36;98610.16;;;20.92;53.17
10587;BME280;5341;47.606;7.576;2023-05-01T12:46:04;98609.09;;;20.93;53.27
10587;BME280;5341;47.606;7.576;2023-05-01T12:48:38;98609.66;;;20.95;53.47
10587;BME280;5341;47.606;7.576;2023-05-01T12:51:08;98611.31;;;20.96;53.33
10587;BME280;5341;47.606;7.576;2023-05-01T12:53:45;98614.03;;;20.96;53.17
10587;BME280;5341;47.606;7.576;2023-05-01T12:56:21;98609.09;;;20.93;52.97
10587;BME280;5341;47.606;7.576;2023-05-01T12:58:52;98611.25;;;20.91;52.79
10587;BME280;5341;47.606;7.576;2023-05-01T13:01:24;98609.84;;;20.89;52.86
10587;BME280;5341;47.606;7.576;2023-05-01T13:03:53;98600.63;;;20.90;52.74
10587;BME280;5341;47.606;7.576;2023-05-01T13:06:31;98597.38;;;20.93;52.72
10587;BME280;5341;47.606;7.576;2023-05-01T13:09:09;98594.94;;;20.91;52.28
10587;BME280;5341;47.606;7.576;2023-05-01T13:11:40;98596.25;;;20.89;52.49
10587;BME280;5341;47.606;7.576;2023-05-01T13:14:08;98593.78;;;20.87;52.41
10587;BME280;5341;47.606;7.576;2023-05-01T13:16:44;98587.53;;;20.87;52.45
10587;BME280;5341;47.606;7.576;2023-05-01T13:19:13;98598.47;;;20.92;52.86
10587;BME280;5341;47.606;7.576;2023-05-01T13:21:49;98592.59;;;21.00;52.79
10587;BME280;5341;47.606;7.576;2023-05-01T13:24:18;98591.69;;;21.16;52.62
10587;BME280;5341;47.606;7.576;2023-05-01T13:26:47;98594.41;;;21.38;52.55
10587;BME280;5341;47.606;7.576;2023-05-01T13:29:24;98591.56;;;21.55;51.44
10587;BME280;5341;47.606;7.576;2023-05-01T13:31:52;98588.34;;;21.58;52.03
10587;BME280;5341;47.606;7.576;2023-05-01T13:34:27;98588.34;;;21.58;52.59
10587;BME280;5341;47.606;7.576;2023-05-01T13:36:57;98583.72;;;21.58;52.83
10587;BME280;5341;47.606;7.576;2023-05-01T13:39:26;98577.97;;;21.55;53.09
10587;BME280;5341;47.606;7.576;2023-05-01T13:41:55;98586.34;;;21.48;52.79
10587;BME280;5341;47.606;7.576;2023-05-01T13:44:26;98596.34;;;21.43;52.92